Time;durP1;ratioP1;P1;durP2;ratioP2;P2;SDS_P1;SDS_P2;PMS_P1;PMS_P2;Temp;Humidity;BMP_temperature;BMP_pressure;BME280_temperature;BME280_humidity;BME280_pressure;Samples;Min_cycle;Max_cycle;Signal;HPM_P1;HPM_P2
2024/03/30 00:02:26;;;;;;;0.00;0.00;;;;;;;7.84;100.00;100741.64;107185;1253;71423;-81
2024/03/30 00:04:54;;;;;;;0.00;0.00;;;;;;;7.71;100.00;100741.31;107917;1257;62229;-78
2024/03/30 00:07:22;;;;;;;0.10;0.10;;;;;;;7.63;100.00;100744.43;106467;1252;62098;-80
2024/03/30 00:09:50;;;;;;;0.00;0.00;;;;;;;7.51;100.00;100754.34;106487;1254;74271;-81
2024/03/30 00:12:18;;;;;;;0.10;0.10;;;;;;;7.42;100.00;100763.13;106555;1254;68531;-79
2024/03/30 00:14:46;;;;;;;0.00;0.00;;;;;;;7.34;100.00;100769.06;106452;1254;71389;-78
2024/03/30 00:17:13;;;;;;;0.00;0.00;;;;;;;7.21;100.00;100762.17;106533;1255;62034;-80
2024/03/30 00:19:42;;;;;;;0.00;0.00;;;;;;;7.15;100.00;100764.85;106442;1257;62165;-81
2024/03/30 00:22:09;;;;;;;0.60;0.50;;;;;;;7.00;100.00;100770.66;106256;1253;74846;-81
2024/03/30 00:24:37;;;;;;;0.00;0.00;;;;;;;6.94;100.00;100775.83;105986;1257;67139;-78
2024/03/30 00:27:05;;;;;;;0.70;0.70;;;;;;;6.88;100.00;100782.91;106028;1254;72717;-79
2024/03/30 00:29:34;;;;;;;0.00;0.00;;;;;;;6.89;100.00;100779.08;106009;1257;62145;-81
2024/03/30 00:32:02;;;;;;;0.50;0.50;;;;;;;6.81;100.00;100782.70;105888;1255;62617;-81
2024/03/30 00:34:29;;;;;;;0.00;0.00;;;;;;;6.69;100.00;100783.63;106005;1257;75426;-81
2024/03/30 00:42:12;;;;;;;0.40;0.40;;;;;;;6.47;100.00;100791.77;102957;1294;601550;-78
2024/03/30 00:44:40;;;;;;;0.00;0.00;;;;;;;6.41;100.00;100800.45;105166;1269;59766;-80
2024/03/30 00:47:07;;;;;;;0.00;0.00;;;;;;;6.39;100.00;100799.93;104990;1267;60490;-80
2024/03/30 00:49:35;;;;;;;1.70;0.80;;;;;;;6.32;100.00;100800.70;105611;1261;73035;-80
2024/03/30 00:52:03;;;;;;;0.20;0.20;;;;;;;6.25;100.00;100800.43;105460;1260;67576;-78
2024/03/30 00:54:31;;;;;;;0.20;0.20;;;;;;;6.19;100.00;100805.96;105425;1260;71376;-77
2024/03/30 00:56:59;;;;;;;0.00;0.00;;;;;;;6.14;100.00;100798.14;105349;1258;217237;-80
2024/03/30 00:59:26;;;;;;;0.40;0.40;;;;;;;6.07;100.00;100792.15;105873;1257;59554;-78
2024/03/30 01:01:54;;;;;;;4.50;1.10;;;;;;;5.98;100.00;100790.23;105543;1257;71825;-80
2024/03/30 01:04:21;;;;;;;0.10;0.10;;;;;;;5.94;100.00;100791.83;105591;1257;68381;-77
2024/03/30 01:06:49;;;;;;;0.70;0.70;;;;;;;5.88;100.00;100792.13;105530;1263;72736;-80
2024/03/30 01:09:17;;;;;;;0.40;0.40;;;;;;;5.79;100.00;100792.14;106715;1257;60526;-78
2024/03/30 01:11:45;;;;;;;1.10;1.10;;;;;;;5.73;100.00;100791.17;106288;1257;60459;-80
2024/03/30 01:14:15;;;;;;;1.10;1.10;;;;;;;5.68;100.00;100786.15;105715;1257;72585;-80
2024/03/30 01:16:43;;;;;;;0.00;0.00;;;;;;;5.61;100.00;100782.81;105709;1262;67165;-80
2024/03/30 01:19:11;;;;;;;0.00;0.00;;;;;;;5.55;100.00;100793.15;105748;1260;70820;-80
2024/03/30 01:21:38;;;;;;;0.10;0.10;;;;;;;5.53;100.00;100795.39;105819;1263;60596;-80
2024/03/30 01:24:07;;;;;;;0.00;0.00;;;;;;;5.50;100.00;100800.73;106021;1257;60605;-77
2024/03/30 01:26:41;;;;;;;0.40;0.40;;;;;;;5.46;100.00;100807.64;105540;1257;72594;-78
2024/03/30 01:29:08;;;;;;;1.50;1.40;;;;;;;5.40;100.00;100809.73;105701;1257;68913;-81
2024/03/30 01:31:36;;;;;;;0.00;0.00;;;;;;;5.37;100.00;100807.08;105561;1257;72693;-77
2024/03/30 01:34:04;;;;;;;1.30;1.20;;;;;;;5.32;100.00;100809.45;105720;1260;60933;-80
2024/03/30 01:36:31;;;;;;;0.00;0.00;;;;;;;5.30;100.00;100813.83;105780;1260;60361;-78
2024/03/30 01:38:59;;;;;;;1.10;0.50;;;;;;;5.28;100.00;100820.25;105674;1257;74334;-77
2024/03/30 01:41:27;;;;;;;0.10;0.10;;;;;;;5.22;100.00;100819.35;105742;1260;67919;-78
2024/03/30 01:43:54;;;;;;;0.00;0.00;;;;;;;5.07;100.00;100818.71;105700;1256;72656;-80
2024/03/30 01:46:22;;;;;;;0.20;0.20;;;;;;;5.09;100.00;100824.60;105923;1259;60503;-81
2024/03/30 01:48:50;;;;;;;0.20;0.20;;;;;;;5.13;100.00;100822.16;105619;1256;60361;-78
2024/03/30 01:51:17;;;;;;;3.20;1.40;;;;;;;5.09;100.00;100829.06;105842;1256;73775;-80
2024/03/30 01:53:45;;;;;;;2.70;2.50;;;;;;;5.14;100.00;100824.52;105647;1260;68925;-80
2024/03/30 01:56:12;;;;;;;0.00;0.00;;;;;;;5.11;100.00;100826.20;105619;1257;71644;-81
2024/03/30 01:58:40;;;;;;;0.00;0.00;;;;;;;5.09;100.00;100825.43;105728;1260;60549;-80
2024/03/30 02:01:07;;;;;;;0.10;0.10;;;;;;;5.01;100.00;100823.33;105889;1256;60505;-80
2024/03/30 02:03:35;;;;;;;0.00;0.00;;;;;;;4.96;100.00;100825.70;105730;1260;73775;-77
2024/03/30 02:06:03;;;;;;;0.00;0.00;;;;;;;4.91;100.00;100825.77;105677;1260;67575;-78
2024/03/30 02:08:31;;;;;;;0.00;0.00;;;;;;;4.88;100.00;100826.27;105849;1257;71418;-80
2024/03/30 02:11:00;;;;;;;0.00;0.00;;;;;;;4.85;100.00;100832.95;105748;1257;60409;-80
2024/03/30 02:13:31;;;;;;;0.30;0.30;;;;;;;4.82;100.00;100836.23;105563;1262;60520;-80
2024/03/30 02:15:58;;;;;;;0.60;0.60;;;;;;;4.76;100.00;100836.25;105612;1257;72575;-78
2024/03/30 02:18:26;;;;;;;0.10;0.10;;;;;;;4.72;100.00;100840.55;106243;1256;67411;-78
2024/03/30 02:20:53;;;;;;;0.00;0.00;;;;;;;4.69;100.00;100849.27;107398;1253;72045;-81
2024/03/30 02:23:21;;;;;;;0.00;0.00;;;;;;;4.64;100.00;100853.54;107884;1254;59242;-81
2024/03/30 02:25:49;;;;;;;0.00;0.00;;;;;;;4.59;100.00;100852.54;106465;1254;60450;-81
2024/03/30 02:28:16;;;;;;;0.00;0.00;;;;;;;4.54;100.00;100845.73;106381;1254;72610;-78
2024/03/30 02:30:44;;;;;;;0.00;0.00;;;;;;;4.49;100.00;100840.72;106663;1254;68431;-78
2024/03/30 02:33:12;;;;;;;0.10;0.10;;;;;;;4.41;100.00;100846.79;106408;1259;71445;-78
2024/03/30 02:35:39;;;;;;;0.50;0.50;;;;;;;4.41;100.00;100852.95;106429;1256;59755;-78
2024/03/30 02:38:07;;;;;;;0.00;0.00;;;;;;;4.38;100.00;100851.46;107282;1254;60428;-78
2024/03/30 02:40:37;;;;;;;0.10;0.10;;;;;;;4.36;100.00;100857.76;106552;1254;73818;-78
2024/03/30 02:43:06;;;;;;;1.10;0.70;;;;;;;4.35;100.00;100854.65;107345;1254;68883;-81
2024/03/30 02:45:33;;;;;;;0.00;0.00;;;;;;;4.31;100.00;100854.54;106282;1257;72770;-81
2024/03/30 02:48:01;;;;;;;0.30;0.30;;;;;;;4.27;100.00;100854.25;106568;1254;60874;-81
2024/03/30 02:50:29;;;;;;;0.00;0.00;;;;;;;4.24;100.00;100856.02;106507;1254;61060;-78
2024/03/30 02:52:56;;;;;;;0.00;0.00;;;;;;;4.19;100.00;100859.88;106503;1254;72607;-78
2024/03/30 02:55:24;;;;;;;0.30;0.30;;;;;;;4.15;100.00;100854.98;106325;1254;68663;-81
2024/03/30 02:57:51;;;;;;;0.00;0.00;;;;;;;4.13;100.00;100853.96;106441;1254;72648;-78
2024/03/30 03:00:19;;;;;;;0.10;0.10;;;;;;;4.09;100.00;100854.17;106378;1258;60540;-80
2024/03/30 03:02:47;;;;;;;0.20;0.20;;;;;;;4.10;100.00;100855.08;106342;1254;60011;-78
2024/03/30 03:05:15;;;;;;;0.00;0.00;;;;;;;4.07;100.00;100856.46;106770;1254;73830;-78
2024/03/30 03:07:42;;;;;;;0.00;0.00;;;;;;;4.04;100.00;100853.08;106339;1254;67786;-81
2024/03/30 03:10:10;;;;;;;0.60;0.60;;;;;;;4.03;100.00;100853.45;106394;1254;71539;-78
2024/03/30 03:12:37;;;;;;;0.20;0.20;;;;;;;3.98;100.00;100856.10;106406;1254;61393;-80
2024/03/30 03:15:06;;;;;;;0.00;0.00;;;;;;;3.96;100.00;100861.86;106308;1254;60508;-81
2024/03/30 03:17:37;;;;;;;0.00;0.00;;;;;;;3.92;100.00;100861.08;106489;1254;73855;-78
2024/03/30 03:20:05;;;;;;;0.20;0.20;;;;;;;3.97;100.00;100861.36;106417;1253;68713;-78
2024/03/30 03:22:33;;;;;;;0.00;0.00;;;;;;;3.98;100.00;100864.30;106512;1254;73061;-78
2024/03/30 03:25:02;;;;;;;0.40;0.40;;;;;;;3.95;100.00;100866.54;106284;1254;60857;-78
2024/03/30 03:27:29;;;;;;;0.90;0.90;;;;;;;3.96;100.00;100864.34;106334;1254;60337;-81
2024/03/30 03:29:57;;;;;;;0.10;0.10;;;;;;;3.94;100.00;100861.85;106385;1259;74189;-78
2024/03/30 03:32:25;;;;;;;0.00;0.00;;;;;;;3.94;100.00;100865.25;106338;1254;68426;-78
2024/03/30 03:34:53;;;;;;;0.00;0.00;;;;;;;3.95;100.00;100873.95;106309;1258;71386;-78
2024/03/30 03:37:20;;;;;;;0.00;0.00;;;;;;;3.89;100.00;100877.33;106371;1254;60892;-81
2024/03/30 03:39:48;;;;;;;0.80;0.80;;;;;;;3.90;100.00;100871.84;106458;1254;60470;-78
2024/03/30 03:42:17;;;;;;;1.50;1.40;;;;;;;3.88;100.00;100877.59;106368;1258;74353;-81
2024/03/30 03:44:44;;;;;;;0.40;0.40;;;;;;;3.95;100.00;100881.23;106386;1253;68399;-81
2024/03/30 03:47:12;;;;;;;0.00;0.00;;;;;;;3.97;100.00;100887.30;106304;1254;71653;-78
2024/03/30 03:49:39;;;;;;;0.00;0.00;;;;;;;4.01;100.00;100885.15;106346;1253;60869;-79
2024/03/30 03:52:07;;;;;;;0.00;0.00;;;;;;;4.01;100.00;100891.81;106320;1254;60575;-81
2024/03/30 03:54:34;;;;;;;0.00;0.00;;;;;;;4.02;100.00;100893.20;106291;1254;73899;-81
2024/03/30 03:57:02;;;;;;;0.20;0.20;;;;;;;4.04;100.00;100894.50;106326;1254;68896;-81
2024/03/30 03:59:30;;;;;;;0.00;0.00;;;;;;;4.11;100.00;100895.27;106483;1253;72695;-78
2024/03/30 04:01:57;;;;;;;0.00;0.00;;;;;;;4.19;100.00;100904.56;106405;1254;60421;-78
2024/03/30 04:04:25;;;;;;;0.10;0.10;;;;;;;4.27;100.00;100894.25;106354;1257;60039;-78
2024/03/30 04:06:52;;;;;;;0.20;0.20;;;;;;;4.37;100.00;100889.44;107518;1257;73835;-78
2024/03/30 04:09:20;;;;;;;0.90;0.40;;;;;;;4.41;100.00;100890.04;107874;1253;67129;-78
2024/03/30 04:11:47;;;;;;;0.00;0.00;;;;;;;4.43;100.00;100892.75;106401;1254;72641;-80
2024/03/30 04:14:15;;;;;;;0.10;0.10;;;;;;;4.50;100.00;100893.48;106451;1254;60365;-81
2024/03/30 04:16:43;;;;;;;0.00;0.00;;;;;;;4.65;100.00;100893.63;106606;1256;60371;-78
2024/03/30 04:19:17;;;;;;;0.00;0.00;;;;;;;4.78;100.00;100895.16;106555;1257;74371;-78
2024/03/30 04:21:45;;;;;;;0.20;0.20;;;;;;;4.90;100.00;100899.20;106334;1254;68414;-81
2024/03/30 04:24:12;;;;;;;0.10;0.10;;;;;;;5.05;100.00;100893.81;106284;1254;72661;-78
2024/03/30 04:26:40;;;;;;;0.10;0.10;;;;;;;5.19;100.00;100896.91;106381;1257;61119;-78
2024/03/30 04:29:08;;;;;;;0.50;0.50;;;;;;;5.38;100.00;100898.20;106407;1253;60504;-78
2024/03/30 04:31:35;;;;;;;0.00;0.00;;;;;;;5.51;100.00;100897.38;106308;1254;72616;-78
2024/03/30 04:34:03;;;;;;;0.80;0.80;;;;;;;5.66;100.00;100893.88;106367;1254;67728;-81
2024/03/30 04:36:30;;;;;;;0.00;0.00;;;;;;;5.73;100.00;100892.67;106357;1259;71895;-81
2024/03/30 04:38:58;;;;;;;0.00;0.00;;;;;;;5.85;100.00;100896.54;106321;1254;60521;-79
2024/03/30 04:41:25;;;;;;;0.10;0.10;;;;;;;5.93;100.00;100903.30;106434;1254;60485;-78
2024/03/30 04:43:53;;;;;;;0.10;0.10;;;;;;;6.02;100.00;100912.67;106463;1254;72976;-78
2024/03/30 04:46:21;;;;;;;0.00;0.00;;;;;;;6.11;100.00;100920.50;106408;1254;66844;-81
2024/03/30 04:48:48;;;;;;;0.40;0.40;;;;;;;6.17;100.00;100920.68;106228;1257;71433;-78
2024/03/30 04:51:16;;;;;;;0.70;0.70;;;;;;;6.19;100.00;100923.19;106397;1254;61148;-78
2024/03/30 04:53:44;;;;;;;0.40;0.40;;;;;;;6.26;100.00;100927.45;106383;1254;61317;-78
2024/03/30 04:56:11;;;;;;;0.20;0.20;;;;;;;6.25;100.00;100926.61;106272;1254;72704;-78
2024/03/30 04:58:40;;;;;;;0.00;0.00;;;;;;;6.26;100.00;100930.77;106366;1254;68490;-81
2024/03/30 05:01:08;;;;;;;2.80;1.30;;;;;;;6.34;100.00;100936.30;106411;1254;72658;-81
2024/03/30 05:03:37;;;;;;;0.20;0.20;;;;;;;6.45;100.00;100934.27;106440;1254;60009;-81
2024/03/30 05:06:05;;;;;;;0.40;0.40;;;;;;;6.53;100.00;100936.33;106291;1254;61353;-78
2024/03/30 05:08:33;;;;;;;0.30;0.30;;;;;;;6.64;100.00;100939.03;106343;1257;73379;-81
2024/03/30 05:11:00;;;;;;;0.80;0.80;;;;;;;6.74;100.00;100942.66;106075;1260;67592;-81
2024/03/30 05:13:28;;;;;;;0.40;0.40;;;;;;;6.88;100.00;100948.74;106380;1258;72834;-78
2024/03/30 05:15:56;;;;;;;1.50;1.50;;;;;;;7.04;100.00;100946.39;107491;1254;61276;-81
2024/03/30 05:18:23;;;;;;;1.30;1.10;;;;;;;7.17;100.00;100943.17;106925;1254;61277;-81
2024/03/30 05:21:01;;;;;;;0.20;0.20;;;;;;;7.37;100.00;100947.88;107926;1253;74607;-80
2024/03/30 05:23:33;;;;;;;3.40;2.50;;;;;;;7.61;100.00;100948.44;106904;1254;68479;-79
2024/03/30 05:26:02;;;;;;;0.10;0.10;;;;;;;7.82;100.00;100950.89;106231;1254;72935;-78
2024/03/30 05:28:31;;;;;;;1.00;0.90;;;;;;;8.04;100.00;100957.36;106788;1257;61374;-81
2024/03/30 05:31:02;;;;;;;0.30;0.30;;;;;;;8.32;100.00;100954.48;106389;1254;61248;-81
2024/03/30 05:33:29;;;;;;;0.20;0.20;;;;;;;8.65;100.00;100963.13;106175;1254;73379;-78
2024/03/30 05:35:57;;;;;;;0.60;0.60;;;;;;;9.01;100.00;100962.91;106365;1257;68670;-81
2024/03/30 05:38:25;;;;;;;0.10;0.10;;;;;;;9.40;100.00;100961.39;106199;1254;71473;-81
2024/03/30 05:40:52;;;;;;;0.10;0.10;;;;;;;9.77;100.00;100962.07;105760;1258;61843;-81
2024/03/30 05:43:20;;;;;;;0.90;0.90;;;;;;;10.09;100.00;100961.98;105961;1257;61365;-78
2024/03/30 05:45:48;;;;;;;0.00;0.00;;;;;;;10.45;100.00;100965.42;105775;1257;72435;-78
2024/03/30 05:48:15;;;;;;;0.80;0.80;;;;;;;10.71;100.00;100964.56;105796;1258;67247;-80
2024/03/30 05:50:43;;;;;;;0.10;0.10;;;;;;;10.94;100.00;100964.19;105731;1257;71782;-81
2024/03/30 05:53:11;;;;;;;0.00;0.00;;;;;;;11.15;100.00;100965.27;105883;1254;61278;-78
2024/03/30 05:55:38;;;;;;;1.00;1.00;;;;;;;11.33;100.00;100967.17;105784;1254;61251;-81
2024/03/30 05:58:09;;;;;;;0.40;0.30;;;;;;;11.51;100.00;100968.55;105740;1259;74652;-81
2024/03/30 06:00:37;;;;;;;0.20;0.20;;;;;;;11.69;100.00;100971.02;105714;1259;68779;-81
2024/03/30 06:03:05;;;;;;;0.20;0.20;;;;;;;11.78;100.00;100974.73;105977;1254;72818;-78
2024/03/30 06:05:33;;;;;;;0.50;0.50;;;;;;;11.88;100.00;100978.09;105758;1259;61250;-81
2024/03/30 06:08:01;;;;;;;2.10;1.30;;;;;;;12.04;100.00;100977.44;105865;1259;61278;-78
2024/03/30 06:10:30;;;;;;;1.30;1.30;;;;;;;12.20;100.00;100980.15;105887;1254;75526;-78
2024/03/30 06:12:57;;;;;;;0.00;0.00;;;;;;;12.33;100.00;100980.44;105781;1258;68794;-81
2024/03/30 06:15:25;;;;;;;0.30;0.20;;;;;;;12.48;100.00;100978.90;105885;1259;72814;-78
2024/03/30 06:17:53;;;;;;;0.30;0.30;;;;;;;12.63;100.00;100975.58;105991;1254;61306;-78
2024/03/30 06:20:20;;;;;;;0.00;0.00;;;;;;;12.75;100.00;100973.98;107388;1258;61257;-81
2024/03/30 06:22:48;;;;;;;0.70;0.70;;;;;;;12.84;100.00;100973.99;105943;1258;74709;-81
2024/03/30 06:25:16;;;;;;;0.70;0.70;;;;;;;12.94;100.00;100973.46;105911;1257;66789;-81
2024/03/30 06:27:43;;;;;;;0.10;0.10;;;;;;;13.01;100.00;100977.86;105930;1258;72775;-81
2024/03/30 06:30:12;;;;;;;0.00;0.00;;;;;;;13.13;100.00;100974.39;105985;1259;61346;-81
2024/03/30 06:32:39;;;;;;;0.00;0.00;;;;;;;13.23;100.00;100978.79;105803;1254;61436;-78
2024/03/30 06:35:07;;;;;;;0.80;0.80;;;;;;;13.36;100.00;100980.69;105898;1257;74627;-78
2024/03/30 06:37:35;;;;;;;0.60;0.30;;;;;;;13.60;100.00;100982.05;105895;1257;69107;-78
2024/03/30 06:46:03;;;;;;;0.40;0.40;;;;;;;14.52;100.00;100982.77;105797;1255;61580;-78
2024/03/30 06:48:30;;;;;;;1.30;0.80;;;;;;;14.78;100.00;100984.52;106101;1254;74705;-78
2024/03/30 06:50:58;;;;;;;0.10;0.10;;;;;;;15.00;100.00;100980.64;106765;1254;68770;-78
2024/03/30 06:53:26;;;;;;;0.70;0.70;;;;;;;15.21;100.00;100984.10;105847;1254;72694;-78
2024/03/30 06:55:54;;;;;;;0.20;0.20;;;;;;;15.42;100.00;100977.05;106430;1259;61246;-80
2024/03/30 06:58:22;;;;;;;0.00;0.00;;;;;;;15.60;100.00;100980.75;106408;1254;61225;-80
2024/03/30 07:00:49;;;;;;;1.40;0.70;;;;;;;15.74;100.00;100978.19;106338;1254;73453;-81
2024/03/30 07:03:17;;;;;;;0.30;0.20;;;;;;;15.93;100.00;100975.41;106453;1253;68357;-79
2024/03/30 07:05:45;;;;;;;0.70;0.70;;;;;;;16.11;100.00;100975.10;106314;1254;70132;-80
2024/03/30 07:08:12;;;;;;;0.00;0.00;;;;;;;16.29;100.00;100976.58;106470;1255;62685;-78
2024/03/30 07:10:40;;;;;;;0.00;0.00;;;;;;;16.55;100.00;100976.35;106058;1259;61309;-80
2024/03/30 07:13:07;;;;;;;0.60;0.30;;;;;;;16.87;100.00;100975.48;105918;1259;74600;-80
2024/03/30 07:15:35;;;;;;;0.00;0.00;;;;;;;17.15;100.00;100970.20;106029;1258;68707;-81
2024/03/30 07:18:06;;;;;;;0.90;0.70;;;;;;;17.43;100.00;100974.34;105926;1255;71393;-79
2024/03/30 07:20:33;;;;;;;0.00;0.00;;;;;;;17.73;100.00;100969.27;105898;1254;61295;-79
2024/03/30 07:23:01;;;;;;;0.00;0.00;;;;;;;18.02;100.00;100972.17;106062;1253;61301;-80
2024/03/30 07:25:28;;;;;;;0.00;0.00;;;;;;;18.23;100.00;100967.60;105918;1254;73405;-79
2024/03/30 07:27:56;;;;;;;0.00;0.00;;;;;;;18.36;97.72;100965.66;105962;1259;68861;-78
2024/03/30 07:30:23;;;;;;;0.00;0.00;;;;;;;18.49;87.32;100964.70;105924;1260;71972;-79
2024/03/30 07:32:51;;;;;;;0.00;0.00;;;;;;;18.51;82.58;100964.61;106369;1259;61205;-80
2024/03/30 07:35:19;;;;;;;0.00;0.00;;;;;;;18.56;82.33;100966.00;106465;1259;61229;-78
2024/03/30 07:37:46;;;;;;;0.00;0.00;;;;;;;18.66;78.26;100962.67;106474;1259;74558;-81
2024/03/30 07:40:14;;;;;;;0.00;0.00;;;;;;;18.71;72.78;100957.92;106043;1254;68723;-81
2024/03/30 07:42:41;;;;;;;0.10;0.10;;;;;;;18.74;71.65;100956.78;105984;1253;72823;-78
2024/03/30 07:45:09;;;;;;;0.00;0.00;;;;;;;18.79;69.53;100955.50;105902;1256;61302;-81
2024/03/30 07:47:38;;;;;;;0.00;0.00;;;;;;;18.93;67.98;100956.33;106313;1259;61131;-81
2024/03/30 07:50:05;;;;;;;0.00;0.00;;;;;;;19.08;61.66;100957.73;106472;1253;74678;-81
2024/03/30 07:52:33;;;;;;;0.00;0.00;;;;;;;19.16;58.81;100959.98;106048;1259;67110;-77
2024/03/30 07:55:00;;;;;;;0.00;0.00;;;;;;;19.20;59.28;100956.17;105908;1258;72674;-78
2024/03/30 07:57:28;;;;;;;0.00;0.00;;;;;;;19.32;60.82;100959.86;106046;1254;61120;-81
2024/03/30 07:59:56;;;;;;;0.00;0.00;;;;;;;19.48;62.94;100960.11;105924;1258;61157;-78
2024/03/30 08:02:23;;;;;;;0.00;0.00;;;;;;;19.61;63.52;100960.69;105970;1254;73348;-81
2024/03/30 08:04:51;;;;;;;26.00;24.90;;;;;;;19.71;64.58;100959.77;105966;1254;69403;-81
2024/03/30 08:07:18;;;;;;;0.10;0.10;;;;;;;19.77;65.49;100959.67;105975;1254;71404;-82
2024/03/30 08:09:46;;;;;;;0.30;0.30;;;;;;;19.83;64.61;100963.33;106404;1256;61241;-78
2024/03/30 08:12:13;;;;;;;0.00;0.00;;;;;;;19.84;62.13;100961.66;106360;1254;61266;-81
2024/03/30 08:14:41;;;;;;;0.00;0.00;;;;;;;19.83;62.33;100961.53;106454;1259;76609;-78
2024/03/30 08:17:09;;;;;;;0.00;0.00;;;;;;;19.91;62.55;100964.31;106553;1254;68358;-81
2024/03/30 08:19:36;;;;;;;0.00;0.00;;;;;;;19.92;60.13;100967.92;106339;1253;72652;-79
2024/03/30 08:22:04;;;;;;;0.00;0.00;;;;;;;19.86;55.33;100973.91;106446;1256;61822;-81
2024/03/30 08:24:31;;;;;;;0.00;0.00;;;;;;;19.75;55.14;100976.33;106557;1253;61240;-82
2024/03/30 08:26:59;;;;;;;0.00;0.00;;;;;;;19.67;57.27;100975.34;106310;1259;74638;-80
2024/03/30 08:29:27;;;;;;;0.00;0.00;;;;;;;19.57;59.33;100977.00;106516;1258;67272;-82
2024/03/30 08:31:54;;;;;;;0.00;0.00;;;;;;;19.51;63.92;100973.05;106417;1254;72654;-82
2024/03/30 08:34:22;;;;;;;0.50;0.50;;;;;;;19.51;70.38;100969.57;106382;1254;61236;-79
2024/03/30 08:36:50;;;;;;;0.00;0.00;;;;;;;19.66;72.06;100965.86;106364;1254;61465;-81
2024/03/30 08:39:17;;;;;;;0.00;0.00;;;;;;;19.95;72.09;100961.40;106464;1254;76643;-80
2024/03/30 08:41:45;;;;;;;0.00;0.00;;;;;;;20.05;69.52;100958.27;106425;1254;68775;-79
2024/03/30 08:44:13;;;;;;;0.00;0.00;;;;;;;20.17;59.90;100952.19;106468;1259;72468;-79
2024/03/30 08:46:40;;;;;;;0.00;0.00;;;;;;;20.29;56.66;100950.79;106050;1258;61243;-77
2024/03/30 08:49:09;;;;;;;0.00;0.00;;;;;;;20.33;55.27;100951.83;105862;1259;61151;-77
2024/03/30 08:51:37;;;;;;;0.00;0.00;;;;;;;20.32;54.90;100948.28;106065;1253;77334;-77
2024/03/30 08:54:05;;;;;;;0.00;0.00;;;;;;;20.25;55.46;100947.46;105912;1258;69737;-77
2024/03/30 08:56:33;;;;;;;0.60;0.50;;;;;;;20.32;58.61;100944.43;105893;1254;73880;-77
2024/03/30 08:59:00;;;;;;;0.00;0.00;;;;;;;20.41;58.86;100942.98;105974;1257;61154;-77
2024/03/30 09:01:29;;;;;;;0.00;0.00;;;;;;;20.57;59.24;100940.70;106023;1254;62377;-77
2024/03/30 09:03:56;;;;;;;0.70;0.70;;;;;;;20.61;58.16;100942.62;105909;1259;74646;-77
2024/03/30 09:06:24;;;;;;;0.10;0.10;;;;;;;20.60;55.30;100933.47;105933;1254;67111;-79
2024/03/30 09:08:51;;;;;;;0.00;0.00;;;;;;;20.72;54.59;100924.32;105942;1254;72785;-78
2024/03/30 09:11:19;;;;;;;0.00;0.00;;;;;;;20.83;54.41;100926.79;105997;1257;61355;-78
2024/03/30 09:13:47;;;;;;;0.00;0.00;;;;;;;20.80;52.74;100923.73;106121;1254;61256;-79
2024/03/30 09:16:14;;;;;;;0.00;0.00;;;;;;;20.79;52.22;100918.00;105964;1254;76946;-77
2024/03/30 09:18:42;;;;;;;1.20;1.10;;;;;;;20.77;51.25;100917.47;106108;1257;69816;-79
2024/03/30 09:21:10;;;;;;;0.00;0.00;;;;;;;20.82;48.44;100921.29;105933;1257;71435;-77
2024/03/30 09:23:37;;;;;;;0.10;0.10;;;;;;;20.83;47.69;100921.96;106036;1255;62225;-77
2024/03/30 09:26:05;;;;;;;1.10;1.10;;;;;;;20.77;47.98;100916.52;105924;1253;61420;-77
2024/03/30 09:28:32;;;;;;;0.10;0.10;;;;;;;20.78;49.37;100915.11;105846;1255;77112;-79
2024/03/30 09:31:00;;;;;;;482.50;279.20;;;;;;;20.87;47.71;100915.63;105974;1254;70882;-79
2024/03/30 09:33:28;;;;;;;0.00;0.00;;;;;;;20.81;44.87;100914.48;106024;1255;74173;-77
2024/03/30 09:35:58;;;;;;;0.00;0.00;;;;;;;20.69;46.86;100910.85;105989;1259;62438;-77
2024/03/30 09:38:25;;;;;;;0.20;0.20;;;;;;;20.70;46.39;100907.52;106219;1259;61353;-77
2024/03/30 09:40:54;;;;;;;0.40;0.40;;;;;;;20.71;45.82;100907.39;105931;1257;76714;-77
2024/03/30 09:43:22;;;;;;;0.00;0.00;;;;;;;20.79;47.12;100908.00;106067;1257;67154;-77
2024/03/30 09:45:50;;;;;;;0.00;0.00;;;;;;;20.74;45.60;100909.09;106003;1257;73907;-79
2024/03/30 09:48:18;;;;;;;847.30;443.20;;;;;;;20.58;45.99;100904.73;106009;1259;61273;-77
2024/03/30 09:50:46;;;;;;;1999.90;999.90;;;;;;;20.45;46.75;100903.32;105965;1252;61307;-77
2024/03/30 09:53:14;;;;;;;1999.90;999.90;;;;;;;20.46;48.29;100898.73;106046;1254;75300;-77
2024/03/30 09:55:41;;;;;;;1999.90;999.90;;;;;;;20.49;49.53;100897.61;105780;1254;69901;-78
2024/03/30 09:58:09;;;;;;;1999.90;999.90;;;;;;;20.52;48.65;100896.20;106074;1259;73718;-77
2024/03/30 10:00:37;;;;;;;1999.90;999.90;;;;;;;20.54;47.65;100894.23;106039;1254;62480;-79
2024/03/30 10:03:05;;;;;;;1999.90;999.90;;;;;;;20.45;48.26;100893.06;105974;1259;61269;-79
2024/03/30 10:05:35;;;;;;;1999.90;999.90;;;;;;;20.44;49.53;100891.93;105873;1253;75176;-79
2024/03/30 10:08:06;;;;;;;1999.90;999.90;;;;;;;20.50;49.77;100888.05;105779;1254;70049;-79
2024/03/30 10:10:34;;;;;;;1999.90;999.90;;;;;;;20.52;47.92;100887.80;105978;1256;73467;-79
2024/03/30 10:13:07;;;;;;;1999.90;999.90;;;;;;;20.53;49.60;100883.23;105873;1254;62079;-77
2024/03/30 10:15:48;;;;;;;1999.90;999.90;;;;;;;20.57;51.62;100886.39;106188;1258;62083;-77
2024/03/30 10:18:16;;;;;;;1999.90;999.90;;;;;;;20.63;52.52;100889.76;106220;1256;77027;-79
2024/03/30 10:20:44;;;;;;;1999.90;999.90;;;;;;;20.68;51.33;100887.43;106078;1259;69898;-79
2024/03/30 10:23:11;;;;;;;1999.90;999.90;;;;;;;20.76;50.36;100881.16;106218;1254;72682;-79
2024/03/30 10:25:52;;;;;;;1999.90;999.90;;;;;;;20.86;48.94;100877.52;106000;1260;61344;-79
2024/03/30 10:28:21;;;;;;;1999.90;999.90;;;;;;;20.91;48.89;100871.64;105910;1256;62058;-78
2024/03/30 10:30:48;;;;;;;1999.90;999.90;;;;;;;20.97;46.98;100865.68;106275;1254;75317;-77
2024/03/30 10:33:18;;;;;;;1999.90;999.90;;;;;;;20.98;46.56;100862.07;105945;1254;70341;-76
2024/03/30 10:35:45;;;;;;;1999.90;999.90;;;;;;;21.04;46.88;100858.81;106490;1254;74691;-79
2024/03/30 10:38:13;;;;;;;1999.90;999.90;;;;;;;21.11;45.72;100859.05;106196;1254;62012;-79
2024/03/30 10:40:42;;;;;;;1999.90;999.90;;;;;;;21.19;46.38;100857.02;107735;1253;61010;-80
2024/03/30 10:43:09;;;;;;;1999.90;999.90;;;;;;;21.29;46.33;100853.20;107116;1259;73979;-77
2024/03/30 10:45:38;;;;;;;1999.90;999.90;;;;;;;21.34;47.10;100853.61;107473;1257;69000;-79
2024/03/30 10:48:06;;;;;;;1999.90;999.90;;;;;;;21.39;47.11;100847.77;106187;1256;71925;-79
2024/03/30 10:50:34;;;;;;;1999.90;999.90;;;;;;;21.43;47.26;100846.84;105957;1256;61237;-79
2024/03/30 10:53:07;;;;;;;1999.90;999.90;;;;;;;21.52;47.22;100845.69;105931;1259;61160;-79
2024/03/30 10:55:39;;;;;;;1999.90;999.90;;;;;;;21.67;48.05;100846.86;105973;1257;78133;-79
2024/03/30 10:58:06;;;;;;;1999.90;999.90;;;;;;;21.81;46.03;100842.02;105897;1259;67104;-79
2024/03/30 11:00:34;;;;;;;1999.90;999.90;;;;;;;21.96;46.21;100839.14;105875;1254;75481;-79
2024/03/30 11:03:03;;;;;;;34.50;33.00;;;;;;;22.12;45.21;100832.84;107296;1252;62174;-79
2024/03/30 11:05:31;;;;;;;44.40;41.90;;;;;;;22.14;44.38;100830.27;105628;1257;61359;-79
2024/03/30 11:07:58;;;;;;;42.90;41.00;;;;;;;22.11;44.01;100825.17;106026;1258;76674;-79
2024/03/30 11:10:30;;;;;;;24.80;23.70;;;;;;;22.12;44.50;100817.97;105949;1254;71064;-79
2024/03/30 11:12:59;;;;;;;34.70;33.20;;;;;;;22.24;43.10;100813.38;105962;1259;73572;-79
2024/03/30 11:15:28;;;;;;;41.80;40.00;;;;;;;22.38;42.42;100809.48;105891;1260;62233;-79
2024/03/30 11:18:02;;;;;;;46.90;44.90;;;;;;;22.48;42.79;100808.52;106164;1254;62256;-79
2024/03/30 11:20:44;;;;;;;1999.90;999.90;;;;;;;22.58;42.03;100801.77;106326;1259;75467;-79
2024/03/30 11:23:22;;;;;;;1999.90;999.90;;;;;;;22.66;41.86;100797.77;106094;1256;70621;-79
2024/03/30 11:25:50;;;;;;;1999.90;999.90;;;;;;;22.71;40.64;100793.52;105793;1259;73912;-79
2024/03/30 11:28:24;;;;;;;4.10;4.00;;;;;;;22.67;39.49;100786.02;105841;1254;61336;-79